Bunola, PA (15020)

18:15 EDT le 28 août 2015 (GMT -0400)
Sugar Run Road | | Change Station
CLOSE
Current Station
Stations météorologiques personnelles
Location: Venetia, PA
Altitude: 1096 ft
Stations météo à proximité

Alt. 1096 ft 40.23 °N, 80.04 °W | Updated 28 seconds ago

Ciel dégagé
Ciel dégagé
86.9 ° F
Paraît 84 ° F
N
0.0
Vent Variable Vent de Nord
Gusts 0.0 mph

Aujourd'hui
Haut(e) -- | Bas -- ° F
--% Risque de précip.
Hier
Haut(e) -- | Bas -- ° F
Precip. -- pouce
6:43 AM 7:58 PM
Lune gibbeuse croissante, 99% visible
Pression 30.15 pouce
Visibilité 10.0 Miles terrestres
Nuages Ciel dégagé
indice de chaleur 84 ° F
Point de rosée 50 ° F
Humidité 28%
Précipitations 0.00 pouce
Profondeur de la couche neigeuse Non disponible.
UV 2 sur 12
Pollen 9.80 sur 12
Qualité de l'air Non disponible.
Flu Activity Non disponible.
METAR KAGC 282153Z AUTO 00000KT 10SM CLR 25/08 A3015 RMK AO2 SLP208 T02500078 TSNO
Pression 30.15 pouce
Visibilité 10.0 Miles terrestres
Nuages Ciel dégagé
indice de chaleur 84 ° F
Point de rosée 50 ° F
Humidité 28%
Précipitations 0.00 pouce
Profondeur de la couche neigeuse Non disponible.
UV 2 sur 12
Pollen 9.80 sur 12
Qualité de l'air Non disponible.
Flu Activity Non disponible.
METAR KAGC 282153Z AUTO 00000KT 10SM CLR 25/08 A3015 RMK AO2 SLP208 T02500078 TSNO

10-Day Weather Forecast

×

Almanac

Astronomie

Aug. 28, 2015 Lever Coucher
Temps réel
Crépuscule civil
Crépuscule nautique
Crépuscule astronomique
Lune
Durée de lumière visible
Longueur du jour
Tomorrow will be .
, % of the Moon is Illuminated

Extrêmes aujourd'hui

State Highs State Lows

Community

WunderPhotos

Upload Photos

1,850,515 Photos téléchargées !

WunderBlogs® & News

Nearby

Qualité de l'air

  Qualité de l'air Indice de la qualité de l'air Polluant
Not available.

Épaisseur de neige

Station Depth Altitude

Activité sismique

Ville Distance Mag. Time & Date
Minimum magnitude displayed is 2.5.

Températures des eaux côtières

Lieu Température

Stations

Stations météo à proximité

Emplacement de la station Température Refroidissement éolien Point de rosée Humidité Vent Precip. Alt. Mise à jour Type